sensor_id;sensor_type;location;lat;lon;timestamp;pressure;altitude;pressure_sealevel;temperature;humidity
56174;BME280;42058;52.308;20.924;2022-12-16T00:00:06;100537.46;;;-3.07;100.00
56174;BME280;42058;52.308;20.924;2022-12-16T00:02:38;100534.39;;;-3.10;100.00
56174;BME280;42058;52.308;20.924;2022-12-16T00:05:05;100534.78;;;-3.11;100.00
56174;BME280;42058;52.308;20.924;2022-12-16T00:07:31;100530.00;;;-3.13;100.00
56174;BME280;42058;52.308;20.924;2022-12-16T00:09:57;100519.27;;;-3.14;100.00
56174;BME280;42058;52.308;20.924;2022-12-16T00:12:23;100526.09;;;-3.14;100.00
56174;BME280;42058;52.308;20.924;2022-12-16T00:14:50;100518.74;;;-3.16;100.00
56174;BME280;42058;52.308;20.924;2022-12-16T00:17:16;100523.89;;;-3.16;100.00
56174;BME280;42058;52.308;20.924;2022-12-16T00:19:42;100529.03;;;-3.16;100.00
56174;BME280;42058;52.308;20.924;2022-12-16T00:22:08;100524.68;;;-3.19;100.00
56174;BME280;42058;52.308;20.924;2022-12-16T00:24:34;100531.54;;;-3.19;100.00
56174;BME280;42058;52.308;20.924;2022-12-16T00:27:01;100539.26;;;-3.19;100.00
56174;BME280;42058;52.308;20.924;2022-12-16T00:29:27;100543.51;;;-3.20;100.00
56174;BME280;42058;52.308;20.924;2022-12-16T00:31:53;100539.16;;;-3.22;100.00
56174;BME280;42058;52.308;20.924;2022-12-16T00:34:19;100539.97;;;-3.23;100.00
56174;BME280;42058;52.308;20.924;2022-12-16T00:36:46;100529.67;;;-3.23;100.00
56174;BME280;42058;52.308;20.924;2022-12-16T00:39:12;100536.11;;;-3.23;100.00
56174;BME280;42058;52.308;20.924;2022-12-16T00:41:38;100535.19;;;-3.25;100.00
56174;BME280;42058;52.308;20.924;2022-12-16T00:44:04;100533.46;;;-3.26;100.00
56174;BME280;42058;52.308;20.924;2022-12-16T00:46:30;100536.03;;;-3.26;100.00
56174;BME280;42058;52.308;20.924;2022-12-16T00:48:56;100539.42;;;-3.27;100.00
56174;BME280;42058;52.308;20.924;2022-12-16T00:51:23;100536.84;;;-3.27;100.00
56174;BME280;42058;52.308;20.924;2022-12-16T00:53:49;100544.20;;;-3.25;100.00
56174;BME280;42058;52.308;20.924;2022-12-16T00:56:15;100548.48;;;-3.26;100.00
56174;BME280;42058;52.308;20.924;2022-12-16T00:58:43;100544.56;;;-3.27;100.00
56174;BME280;42058;52.308;20.924;2022-12-16T01:01:09;100541.08;;;-3.30;100.00
56174;BME280;42058;52.308;20.924;2022-12-16T01:03:36;100534.17;;;-3.31;100.00
56174;BME280;42058;52.308;20.924;2022-12-16T01:06:17;100534.15;;;-3.32;100.00
56174;BME280;42058;52.308;20.924;2022-12-16T01:08:36;100543.54;;;-3.33;100.00
56174;BME280;42058;52.308;20.924;2022-12-16T01:11:03;100539.23;;;-3.34;100.00
56174;BME280;42058;52.308;20.924;2022-12-16T01:13:29;100541.70;;;-3.37;100.00
56174;BME280;42058;52.308;20.924;2022-12-16T01:16:00;100545.56;;;-3.37;100.00
56174;BME280;42058;52.308;20.924;2022-12-16T01:18:27;100554.09;;;-3.38;100.00
56174;BME280;42058;52.308;20.924;2022-12-16T01:20:53;100547.22;;;-3.39;100.00
56174;BME280;42058;52.308;20.924;2022-12-16T01:23:19;100555.36;;;-3.39;100.00
56174;BME280;42058;52.308;20.924;2022-12-16T01:25:57;100553.17;;;-3.40;100.00
56174;BME280;42058;52.308;20.924;2022-12-16T01:28:16;100545.94;;;-3.39;100.00
56174;BME280;42058;52.308;20.924;2022-12-16T01:30:43;100542.50;;;-3.39;100.00
56174;BME280;42058;52.308;20.924;2022-12-16T01:33:10;100546.30;;;-3.41;100.00
56174;BME280;42058;52.308;20.924;2022-12-16T01:35:36;100544.17;;;-3.40;100.00
56174;BME280;42058;52.308;20.924;2022-12-16T01:38:02;100536.01;;;-3.41;100.00
56174;BME280;42058;52.308;20.924;2022-12-16T01:40:28;100533.44;;;-3.41;100.00
56174;BME280;42058;52.308;20.924;2022-12-16T01:42:54;100538.64;;;-3.39;100.00
56174;BME280;42058;52.308;20.924;2022-12-16T01:45:33;100524.43;;;-3.41;100.00
56174;BME280;42058;52.308;20.924;2022-12-16T01:48:06;100518.81;;;-3.42;100.00
56174;BME280;42058;52.308;20.924;2022-12-16T01:50:32;100512.38;;;-3.42;100.00
56174;BME280;42058;52.308;20.924;2022-12-16T01:53:02;100513.67;;;-3.42;100.00
56174;BME280;42058;52.308;20.924;2022-12-16T01:55:33;100516.66;;;-3.42;100.00
56174;BME280;42058;52.308;20.924;2022-12-16T01:58:08;100504.59;;;-3.45;100.00
56174;BME280;42058;52.308;20.924;2022-12-16T02:00:37;100492.48;;;-3.48;100.00
56174;BME280;42058;52.308;20.924;2022-12-16T02:03:06;100475.64;;;-3.52;100.00
56174;BME280;42058;52.308;20.924;2022-12-16T02:05:34;100490.17;;;-3.53;100.00
56174;BME280;42058;52.308;20.924;2022-12-16T02:08:18;100500.41;;;-3.54;100.00
56174;BME280;42058;52.308;20.924;2022-12-16T02:11:19;100498.26;;;-3.55;100.00
56174;BME280;42058;52.308;20.924;2022-12-16T02:14:22;100498.68;;;-3.55;100.00
56174;BME280;42058;52.308;20.924;2022-12-16T02:16:56;100494.83;;;-3.55;100.00
56174;BME280;42058;52.308;20.924;2022-12-16T02:22:37;100494.30;;;-3.58;100.00
56174;BME280;42058;52.308;20.924;2022-12-16T02:28:20;100485.53;;;-3.64;100.00
56174;BME280;42058;52.308;20.924;2022-12-16T02:31:11;100487.99;;;-3.68;100.00
56174;BME280;42058;52.308;20.924;2022-12-16T02:34:07;100492.22;;;-3.70;100.00
56174;BME280;42058;52.308;20.924;2022-12-16T02:42:19;100475.03;;;-3.71;100.00
56174;BME280;42058;52.308;20.924;2022-12-16T02:44:54;100469.45;;;-3.72;100.00
56174;BME280;42058;52.308;20.924;2022-12-16T02:47:25;100467.69;;;-3.73;100.00
56174;BME280;42058;52.308;20.924;2022-12-16T02:49:52;100469.39;;;-3.73;100.00
56174;BME280;42058;52.308;20.924;2022-12-16T02:52:26;100482.25;;;-3.73;100.00
56174;BME280;42058;52.308;20.924;2022-12-16T02:55:00;100477.52;;;-3.74;100.00
56174;BME280;42058;52.308;20.924;2022-12-16T03:00:11;100462.96;;;-3.73;100.00
56174;BME280;42058;52.308;20.924;2022-12-16T03:05:44;100450.05;;;-3.75;100.00
56174;BME280;42058;52.308;20.924;2022-12-16T03:08:21;100453.91;;;-3.75;100.00
56174;BME280;42058;52.308;20.924;2022-12-16T03:10:55;100437.56;;;-3.77;100.00
56174;BME280;42058;52.308;20.924;2022-12-16T03:13:22;100440.98;;;-3.78;100.00
56174;BME280;42058;52.308;20.924;2022-12-16T03:15:52;100449.13;;;-3.77;100.00
56174;BME280;42058;52.308;20.924;2022-12-16T03:18:20;100447.42;;;-3.76;100.00
56174;BME280;42058;52.308;20.924;2022-12-16T03:21:02;100446.56;;;-3.77;100.00
56174;BME280;42058;52.308;20.924;2022-12-16T03:23:40;100432.42;;;-3.77;100.00
56174;BME280;42058;52.308;20.924;2022-12-16T03:26:39;100432.89;;;-3.76;100.00
56174;BME280;42058;52.308;20.924;2022-12-16T03:32:03;100444.09;;;-3.74;100.00
56174;BME280;42058;52.308;20.924;2022-12-16T03:34:39;100441.53;;;-3.74;100.00
56174;BME280;42058;52.308;20.924;2022-12-16T03:37:11;100443.63;;;-3.75;100.00
56174;BME280;42058;52.308;20.924;2022-12-16T03:39:46;100436.33;;;-3.75;100.00
56174;BME280;42058;52.308;20.924;2022-12-16T03:42:15;100428.13;;;-3.78;100.00
56174;BME280;42058;52.308;20.924;2022-12-16T03:44:43;100428.56;;;-3.77;100.00
56174;BME280;42058;52.308;20.924;2022-12-16T03:47:11;100415.16;;;-3.81;100.00
56174;BME280;42058;52.308;20.924;2022-12-16T03:49:38;100409.10;;;-3.83;100.00
56174;BME280;42058;52.308;20.924;2022-12-16T03:52:04;100400.55;;;-3.82;100.00
56174;BME280;42058;52.308;20.924;2022-12-16T03:54:30;100406.16;;;-3.81;100.00
56174;BME280;42058;52.308;20.924;2022-12-16T03:56:56;100394.11;;;-3.82;100.00
56174;BME280;42058;52.308;20.924;2022-12-16T03:59:23;100395.83;;;-3.82;100.00
56174;BME280;42058;52.308;20.924;2022-12-16T04:01:49;100387.62;;;-3.85;100.00
56174;BME280;42058;52.308;20.924;2022-12-16T04:04:16;100381.14;;;-3.87;100.00
56174;BME280;42058;52.308;20.924;2022-12-16T04:06:42;100383.76;;;-3.85;100.00
56174;BME280;42058;52.308;20.924;2022-12-16T04:09:08;100388.85;;;-3.87;100.00
56174;BME280;42058;52.308;20.924;2022-12-16T04:11:35;100394.05;;;-3.85;100.00
56174;BME280;42058;52.308;20.924;2022-12-16T04:14:19;100391.81;;;-3.87;100.00
56174;BME280;42058;52.308;20.924;2022-12-16T04:17:04;100396.61;;;-3.85;100.00
56174;BME280;42058;52.308;20.924;2022-12-16T04:19:50;100397.48;;;-3.84;100.00
56174;BME280;42058;52.308;20.924;2022-12-16T04:22:37;100400.47;;;-3.85;100.00
56174;BME280;42058;52.308;20.924;2022-12-16T04:25:30;100389.71;;;-3.86;100.00
56174;BME280;42058;52.308;20.924;2022-12-16T04:27:57;100393.46;;;-3.89;100.00
56174;BME280;42058;52.308;20.924;2022-12-16T04:30:24;100398.97;;;-3.91;100.00
56174;BME280;42058;52.308;20.924;2022-12-16T04:32:55;100405.40;;;-3.91;100.00
56174;BME280;42058;52.308;20.924;2022-12-16T04:35:44;100407.42;;;-3.95;100.00
56174;BME280;42058;52.308;20.924;2022-12-16T04:38:29;100397.14;;;-3.95;100.00
56174;BME280;42058;52.308;20.924;2022-12-16T04:41:14;100399.60;;;-3.98;100.00
56174;BME280;42058;52.308;20.924;2022-12-16T04:44:00;100403.83;;;-4.00;100.00
56174;BME280;42058;52.308;20.924;2022-12-16T04:46:45;100391.34;;;-4.02;100.00
56174;BME280;42058;52.308;20.924;2022-12-16T04:49:29;100391.77;;;-4.03;100.00
56174;BME280;42058;52.308;20.924;2022-12-16T04:52:15;100394.72;;;-4.03;100.00
56174;BME280;42058;52.308;20.924;2022-12-16T04:54:59;100394.72;;;-4.03;100.00
56174;BME280;42058;52.308;20.924;2022-12-16T04:57:49;100396.37;;;-4.06;100.00
56174;BME280;42058;52.308;20.924;2022-12-16T05:00:39;100393.00;;;-4.04;100.00
56174;BME280;42058;52.308;20.924;2022-12-16T05:03:25;100393.00;;;-4.04;100.00
56174;BME280;42058;52.308;20.924;2022-12-16T05:06:10;100387.86;;;-4.04;100.00
56174;BME280;42058;52.308;20.924;2022-12-16T05:08:55;100384.42;;;-4.05;100.00
56174;BME280;42058;52.308;20.924;2022-12-16T05:11:39;100384.42;;;-4.05;100.00
56174;BME280;42058;52.308;20.924;2022-12-16T05:14:24;100378.75;;;-4.08;100.00
56174;BME280;42058;52.308;20.924;2022-12-16T05:17:09;100374.95;;;-4.06;100.00
56174;BME280;42058;52.308;20.924;2022-12-16T05:19:53;100380.52;;;-4.07;100.00
56174;BME280;42058;52.308;20.924;2022-12-16T05:22:38;100378.67;;;-4.11;100.00
56174;BME280;42058;52.308;20.924;2022-12-16T05:25:22;100387.25;;;-4.10;100.00
56174;BME280;42058;52.308;20.924;2022-12-16T05:28:06;100386.02;;;-4.09;100.00
56174;BME280;42058;52.308;20.924;2022-12-16T05:30:51;100383.03;;;-4.08;100.00
56174;BME280;42058;52.308;20.924;2022-12-16T05:33:36;100377.41;;;-4.09;100.00
56174;BME280;42058;52.308;20.924;2022-12-16T05:36:19;100385.65;;;-4.07;100.00
56174;BME280;42058;52.308;20.924;2022-12-16T05:39:04;100389.51;;;-4.07;100.00
56174;BME280;42058;52.308;20.924;2022-12-16T05:41:49;100393.75;;;-4.07;100.00
56174;BME280;42058;52.308;20.924;2022-12-16T05:44:33;100398.50;;;-4.07;100.00
56174;BME280;42058;52.308;20.924;2022-12-16T05:47:18;100393.36;;;-4.07;100.00
56174;BME280;42058;52.308;20.924;2022-12-16T05:50:04;100382.23;;;-4.06;100.00
56174;BME280;42058;52.308;20.924;2022-12-16T05:52:54;100382.23;;;-4.06;100.00
56174;BME280;42058;52.308;20.924;2022-12-16T05:55:40;100389.87;;;-4.09;100.00
56174;BME280;42058;52.308;20.924;2022-12-16T05:58:26;100400.05;;;-4.12;100.00
56174;BME280;42058;52.308;20.924;2022-12-16T06:01:12;100405.99;;;-4.13;100.00
56174;BME280;42058;52.308;20.924;2022-12-16T06:03:57;100401.70;;;-4.14;100.00
56174;BME280;42058;52.308;20.924;2022-12-16T06:06:42;100396.55;;;-4.14;100.00
56174;BME280;42058;52.308;20.924;2022-12-16T06:09:27;100399.55;;;-4.14;100.00
56174;BME280;42058;52.308;20.924;2022-12-16T06:12:12;100406.78;;;-4.15;100.00
56174;BME280;42058;52.308;20.924;2022-12-16T06:14:57;100402.43;;;-4.18;100.00
56174;BME280;42058;52.308;20.924;2022-12-16T06:17:46;100402.38;;;-4.19;100.00
56174;BME280;42058;52.308;20.924;2022-12-16T06:20:33;100410.47;;;-4.20;100.00
56174;BME280;42058;52.308;20.924;2022-12-16T06:23:18;100419.94;;;-4.19;100.00
56174;BME280;42058;52.308;20.924;2022-12-16T06:26:04;100418.23;;;-4.18;100.00
56174;BME280;42058;52.308;20.924;2022-12-16T06:28:49;100416.89;;;-4.20;100.00
56174;BME280;42058;52.308;20.924;2022-12-16T06:31:34;100407.52;;;-4.19;100.00
56174;BME280;42058;52.308;20.924;2022-12-16T06:34:23;100418.55;;;-4.22;100.00
56174;BME280;42058;52.308;20.924;2022-12-16T06:37:05;100423.23;;;-4.23;100.00
56174;BME280;42058;52.308;20.924;2022-12-16T06:39:49;100421.84;;;-4.26;100.00
56174;BME280;42058;52.308;20.924;2022-12-16T06:42:39;100425.25;;;-4.27;100.00
56174;BME280;42058;52.308;20.924;2022-12-16T06:45:27;100408.08;;;-4.28;100.00
56174;BME280;42058;52.308;20.924;2022-12-16T06:48:11;100397.80;;;-4.28;100.00
56174;BME280;42058;52.308;20.924;2022-12-16T06:50:55;100403.75;;;-4.29;100.00
56174;BME280;42058;52.308;20.924;2022-12-16T06:53:35;100410.64;;;-4.28;100.00
56174;BME280;42058;52.308;20.924;2022-12-16T06:56:19;100411.51;;;-4.28;100.00
56174;BME280;42058;52.308;20.924;2022-12-16T06:59:04;100404.22;;;-4.28;100.00
56174;BME280;42058;52.308;20.924;2022-12-16T07:01:49;100405.50;;;-4.28;100.00
56174;BME280;42058;52.308;20.924;2022-12-16T07:04:33;100408.55;;;-4.27;100.00
56174;BME280;42058;52.308;20.924;2022-12-16T07:07:18;100409.00;;;-4.26;100.00
56174;BME280;42058;52.308;20.924;2022-12-16T07:10:03;100412.48;;;-4.24;100.00
56174;BME280;42058;52.308;20.924;2022-12-16T07:12:48;100420.25;;;-4.22;100.00
56174;BME280;42058;52.308;20.924;2022-12-16T07:15:32;100422.39;;;-4.22;100.00
56174;BME280;42058;52.308;20.924;2022-12-16T07:18:17;100429.35;;;-4.19;100.00
56174;BME280;42058;52.308;20.924;2022-12-16T07:21:01;100420.30;;;-4.21;100.00
56174;BME280;42058;52.308;20.924;2022-12-16T07:23:46;100412.41;;;-4.27;100.00
56174;BME280;42058;52.308;20.924;2022-12-16T07:26:30;100427.23;;;-4.18;100.00
56174;BME280;42058;52.308;20.924;2022-12-16T07:29:15;100421.22;;;-4.19;100.00
56174;BME280;42058;52.308;20.924;2022-12-16T07:31:59;100427.23;;;-4.18;100.00
56174;BME280;42058;52.308;20.924;2022-12-16T07:34:44;100430.72;;;-4.16;100.00
56174;BME280;42058;52.308;20.924;2022-12-16T07:37:28;100423.42;;;-4.17;100.00
56174;BME280;42058;52.308;20.924;2022-12-16T07:40:13;100421.41;;;-4.13;100.00
56174;BME280;42058;52.308;20.924;2022-12-16T07:42:58;100415.46;;;-4.12;100.00
56174;BME280;42058;52.308;20.924;2022-12-16T07:45:42;100414.55;;;-4.14;100.00
56174;BME280;42058;52.308;20.924;2022-12-16T07:48:27;100418.84;;;-4.13;100.00
56174;BME280;42058;52.308;20.924;2022-12-16T07:51:11;100426.11;;;-4.14;100.00
56174;BME280;42058;52.308;20.924;2022-12-16T07:53:56;100427.28;;;-4.17;100.00
56174;BME280;42058;52.308;20.924;2022-12-16T07:56:40;100421.33;;;-4.16;100.00
56174;BME280;42058;52.308;20.924;2022-12-16T07:59:24;100411.05;;;-4.16;100.00
56174;BME280;42058;52.308;20.924;2022-12-16T08:02:09;100402.87;;;-4.17;100.00
56174;BME280;42058;52.308;20.924;2022-12-16T08:04:54;100405.44;;;-4.17;100.00
56174;BME280;42058;52.308;20.924;2022-12-16T08:07:39;100405.80;;;-4.19;100.00
56174;BME280;42058;52.308;20.924;2022-12-16T08:10:25;100405.80;;;-4.19;100.00
56174;BME280;42058;52.308;20.924;2022-12-16T08:13:09;100397.29;;;-4.18;100.00
56174;BME280;42058;52.308;20.924;2022-12-16T08:15:55;100399.02;;;-4.17;100.00
56174;BME280;42058;52.308;20.924;2022-12-16T08:18:39;100395.64;;;-4.16;100.00
56174;BME280;42058;52.308;20.924;2022-12-16T08:21:24;100398.59;;;-4.16;100.00
56174;BME280;42058;52.308;20.924;2022-12-16T08:24:08;100404.70;;;-4.13;100.00
56174;BME280;42058;52.308;20.924;2022-12-16T08:26:52;100404.81;;;-4.10;100.00
56174;BME280;42058;52.308;20.924;2022-12-16T08:29:37;100401.88;;;-4.08;100.00
56174;BME280;42058;52.308;20.924;2022-12-16T08:32:21;100395.45;;;-4.08;100.00
56174;BME280;42058;52.308;20.924;2022-12-16T08:35:06;100389.03;;;-4.08;100.00
56174;BME280;42058;52.308;20.924;2022-12-16T08:37:53;100380.41;;;-4.10;100.00
56174;BME280;42058;52.308;20.924;2022-12-16T08:40:40;100379.61;;;-4.07;100.00
56174;BME280;42058;52.308;20.924;2022-12-16T08:43:25;100387.38;;;-4.06;100.00
56174;BME280;42058;52.308;20.924;2022-12-16T08:46:10;100384.44;;;-4.03;100.00
56174;BME280;42058;52.308;20.924;2022-12-16T08:48:55;100388.72;;;-4.04;100.00
56174;BME280;42058;52.308;20.924;2022-12-16T08:51:39;100396.11;;;-4.00;100.00
56174;BME280;42058;52.308;20.924;2022-12-16T08:54:24;100395.74;;;-3.98;100.00
56174;BME280;42058;52.308;20.924;2022-12-16T08:57:08;100394.94;;;-3.97;100.00
56174;BME280;42058;52.308;20.924;2022-12-16T08:59:53;100391.08;;;-3.97;100.00
56174;BME280;42058;52.308;20.924;2022-12-16T09:02:37;100387.33;;;-3.94;100.00
56174;BME280;42058;52.308;20.924;2022-12-16T09:05:22;100378.34;;;-3.94;100.00
56174;BME280;42058;52.308;20.924;2022-12-16T09:08:07;100376.63;;;-3.94;100.00
56174;BME280;42058;52.308;20.924;2022-12-16T09:10:51;100367.58;;;-3.95;100.00
56174;BME280;42058;52.308;20.924;2022-12-16T09:13:36;100359.92;;;-3.94;100.00
56174;BME280;42058;52.308;20.924;2022-12-16T09:16:20;100359.97;;;-3.92;100.00
56174;BME280;42058;52.308;20.924;2022-12-16T09:19:05;100352.26;;;-3.92;100.00
56174;BME280;42058;52.308;20.924;2022-12-16T09:21:49;100343.66;;;-3.93;100.00
56174;BME280;42058;52.308;20.924;2022-12-16T09:24:34;100344.56;;;-3.91;100.00
56174;BME280;42058;52.308;20.924;2022-12-16T09:27:18;100324.90;;;-3.90;100.00
56174;BME280;42058;52.308;20.924;2022-12-16T09:30:03;100318.91;;;-3.89;100.00
56174;BME280;42058;52.308;20.924;2022-12-16T09:32:48;100324.16;;;-3.86;100.00
56174;BME280;42058;52.308;20.924;2022-12-16T09:35:32;100321.21;;;-3.84;100.00
56174;BME280;42058;52.308;20.924;2022-12-16T09:38:17;100323.41;;;-3.82;100.00
56174;BME280;42058;52.308;20.924;2022-12-16T09:50:24;100297.53;;;-3.74;100.00
56174;BME280;42058;52.308;20.924;2022-12-16T09:56:18;100301.97;;;-3.68;100.00
56174;BME280;42058;52.308;20.924;2022-12-16T09:59:11;100293.02;;;-3.67;100.00
56174;BME280;42058;52.308;20.924;2022-12-16T10:01:58;100290.89;;;-3.65;100.00
56174;BME280;42058;52.308;20.924;2022-12-16T10:04:46;100281.98;;;-3.62;100.00
56174;BME280;42058;52.308;20.924;2022-12-16T10:07:37;100285.03;;;-3.61;100.00
56174;BME280;42058;52.308;20.924;2022-12-16T10:10:34;100282.46;;;-3.61;100.00
56174;BME280;42058;52.308;20.924;2022-12-16T10:16:35;100279.14;;;-3.57;100.00
56174;BME280;42058;52.308;20.924;2022-12-16T10:19:32;100281.34;;;-3.55;100.00
56174;BME280;42058;52.308;20.924;2022-12-16T10:22:41;100280.96;;;-3.53;100.00
56174;BME280;42058;52.308;20.924;2022-12-16T10:25:50;100279.77;;;-3.50;100.00
56174;BME280;42058;52.308;20.924;2022-12-16T10:28:57;100293.07;;;-3.49;100.00
56174;BME280;42058;52.308;20.924;2022-12-16T10:32:13;100291.87;;;-3.46;100.00
56174;BME280;42058;52.308;20.924;2022-12-16T10:35:25;100283.73;;;-3.45;100.00
56174;BME280;42058;52.308;20.924;2022-12-16T10:38:29;100282.97;;;-3.43;100.00
56174;BME280;42058;52.308;20.924;2022-12-16T10:41:31;100285.98;;;-3.42;100.00
56174;BME280;42058;52.308;20.924;2022-12-16T10:44:36;100276.98;;;-3.42;100.00
56174;BME280;42058;52.308;20.924;2022-12-16T10:47:38;100283.03;;;-3.40;100.00
56174;BME280;42058;52.308;20.924;2022-12-16T10:50:23;100283.12;;;-3.37;100.00
56174;BME280;42058;52.308;20.924;2022-12-16T10:53:15;100269.45;;;-3.36;100.00
56174;BME280;42058;52.308;20.924;2022-12-16T10:56:34;100265.12;;;-3.37;100.00
56174;BME280;42058;52.308;20.924;2022-12-16T10:59:21;100268.22;;;-3.33;100.00
56174;BME280;42058;52.308;20.924;2022-12-16T11:02:19;100256.64;;;-3.33;100.00
56174;BME280;42058;52.308;20.924;2022-12-16T11:08:25;100252.55;;;-3.26;100.00
56174;BME280;42058;52.308;20.924;2022-12-16T11:11:21;100244.45;;;-3.24;100.00
56174;BME280;42058;52.308;20.924;2022-12-16T11:14:23;100238.88;;;-3.23;100.00
56174;BME280;42058;52.308;20.924;2022-12-16T11:20:11;100238.54;;;-3.20;100.00
56174;BME280;42058;52.308;20.924;2022-12-16T11:23:23;100240.72;;;-3.19;100.00
56174;BME280;42058;52.308;20.924;2022-12-16T11:26:16;100235.19;;;-3.17;100.00
56174;BME280;42058;52.308;20.924;2022-12-16T11:29:16;100239.96;;;-3.15;100.00
56174;BME280;42058;52.308;20.924;2022-12-16T11:32:23;100236.53;;;-3.14;100.00
56174;BME280;42058;52.308;20.924;2022-12-16T11:35:12;100241.73;;;-3.13;100.00
56174;BME280;42058;52.308;20.924;2022-12-16T11:38:03;100234.01;;;-3.13;100.00
56174;BME280;42058;52.308;20.924;2022-12-16T11:40:50;100232.33;;;-3.12;100.00
56174;BME280;42058;52.308;20.924;2022-12-16T11:43:37;100236.63;;;-3.11;100.00
56174;BME280;42058;52.308;20.924;2022-12-16T11:46:25;100228.91;;;-3.11;100.00
56174;BME280;42058;52.308;20.924;2022-12-16T11:49:25;100233.23;;;-3.10;100.00
56174;BME280;42058;52.308;20.924;2022-12-16T11:52:18;100229.81;;;-3.09;100.00
56174;BME280;42058;52.308;20.924;2022-12-16T11:55:20;100220.80;;;-3.09;100.00
56174;BME280;42058;52.308;20.924;2022-12-16T12:01:26;100221.75;;;-3.05;100.00
56174;BME280;42058;52.308;20.924;2022-12-16T12:04:13;100227.41;;;-3.03;100.00
56174;BME280;42058;52.308;20.924;2022-12-16T12:07:05;100231.75;;;-3.00;100.00
56174;BME280;42058;52.308;20.924;2022-12-16T12:10:27;100214.59;;;-3.00;100.00
56174;BME280;42058;52.308;20.924;2022-12-16T12:13:21;100236.09;;;-2.98;100.00
56174;BME280;42058;52.308;20.924;2022-12-16T12:20:00;100231.50;;;-2.94;100.00
56174;BME280;42058;52.308;20.924;2022-12-16T12:23:05;100222.92;;;-2.93;100.00
56174;BME280;42058;52.308;20.924;2022-12-16T12:26:08;100224.30;;;-2.90;100.00
56174;BME280;42058;52.308;20.924;2022-12-16T12:29:31;100217.86;;;-2.90;100.00
56174;BME280;42058;52.308;20.924;2022-12-16T12:32:44;100217.39;;;-2.91;100.00
56174;BME280;42058;52.308;20.924;2022-12-16T12:35:54;100214.44;;;-2.88;100.00
56174;BME280;42058;52.308;20.924;2022-12-16T12:39:10;100209.67;;;-2.91;100.00
56174;BME280;42058;52.308;20.924;2022-12-16T12:42:11;100213.91;;;-2.93;100.00
56174;BME280;42058;52.308;20.924;2022-12-16T12:45:24;100216.11;;;-2.91;100.00
56174;BME280;42058;52.308;20.924;2022-12-16T12:51:18;100218.68;;;-2.91;100.00
56174;BME280;42058;52.308;20.924;2022-12-16T12:54:18;100224.30;;;-2.90;100.00
56174;BME280;42058;52.308;20.924;2022-12-16T12:57:09;100226.91;;;-2.88;100.00
56174;BME280;42058;52.308;20.924;2022-12-16T13:00:03;100227.35;;;-2.87;100.00
56174;BME280;42058;52.308;20.924;2022-12-16T13:06:01;100222.63;;;-2.87;100.00
56174;BME280;42058;52.308;20.924;2022-12-16T13:08:55;100233.79;;;-2.87;100.00
56174;BME280;42058;52.308;20.924;2022-12-16T13:12:18;100233.79;;;-2.87;100.00
56174;BME280;42058;52.308;20.924;2022-12-16T13:15:03;100237.26;;;-2.86;100.00
56174;BME280;42058;52.308;20.924;2022-12-16T13:20:54;100223.08;;;-3.04;100.00
56174;BME280;42058;52.308;20.924;2022-12-16T13:23:41;100246.66;;;-2.87;100.00
56174;BME280;42058;52.308;20.924;2022-12-16T13:26:21;100251.77;;;-2.88;100.00
56174;BME280;42058;52.308;20.924;2022-12-16T13:29:28;100251.81;;;-2.87;100.00
56174;BME280;42058;52.308;20.924;2022-12-16T13:32:26;100263.78;;;-2.89;100.00
56174;BME280;42058;52.308;20.924;2022-12-16T13:38:15;100239.32;;;-2.89;100.00
56174;BME280;42058;52.308;20.924;2022-12-16T13:41:01;100245.33;;;-2.88;100.00
56174;BME280;42058;52.308;20.924;2022-12-16T13:43:52;100259.02;;;-2.91;100.00
56174;BME280;42058;52.308;20.924;2022-12-16T13:46:50;100267.08;;;-2.95;100.00
56174;BME280;42058;52.308;20.924;2022-12-16T13:49:41;100266.22;;;-2.95;100.00
56174;BME280;42058;52.308;20.924;2022-12-16T13:55:51;100260.64;;;-2.95;100.00
56174;BME280;42058;52.308;20.924;2022-12-16T13:58:53;100249.81;;;-2.99;100.00
56174;BME280;42058;52.308;20.924;2022-12-16T14:04:36;100259.20;;;-3.01;100.00
56174;BME280;42058;52.308;20.924;2022-12-16T14:07:25;100265.22;;;-3.00;100.00
56174;BME280;42058;52.308;20.924;2022-12-16T14:13:30;100280.62;;;-3.02;100.00
56174;BME280;42058;52.308;20.924;2022-12-16T14:19:45;100291.77;;;-3.03;100.00
56174;BME280;42058;52.308;20.924;2022-12-16T14:25:43;100279.76;;;-3.02;100.00
56174;BME280;42058;52.308;20.924;2022-12-16T14:31:26;100252.77;;;-3.01;100.00
56174;BME280;42058;52.308;20.924;2022-12-16T14:34:22;100260.03;;;-3.02;100.00
56174;BME280;42058;52.308;20.924;2022-12-16T14:37:20;100252.69;;;-3.04;100.00
56174;BME280;42058;52.308;20.924;2022-12-16T14:40:30;100250.92;;;-3.05;100.00
56174;BME280;42058;52.308;20.924;2022-12-16T14:43:24;100262.83;;;-3.10;100.00
56174;BME280;42058;52.308;20.924;2022-12-16T14:46:26;100267.52;;;-3.11;100.00
56174;BME280;42058;52.308;20.924;2022-12-16T14:49:22;100269.65;;;-3.12;100.00
56174;BME280;42058;52.308;20.924;2022-12-16T14:52:26;100298.40;;;-3.11;100.00
56174;BME280;42058;52.308;20.924;2022-12-16T14:55:16;100297.06;;;-3.13;100.00
56174;BME280;42058;52.308;20.924;2022-12-16T14:58:25;100297.11;;;-3.11;100.00
56174;BME280;42058;52.308;20.924;2022-12-16T15:01:23;100300.11;;;-3.12;100.00
56174;BME280;42058;52.308;20.924;2022-12-16T15:04:18;100295.83;;;-3.11;100.00
56174;BME280;42058;52.308;20.924;2022-12-16T15:07:05;100291.52;;;-3.12;100.00
56174;BME280;42058;52.308;20.924;2022-12-16T15:09:54;100300.11;;;-3.12;100.00
56174;BME280;42058;52.308;20.924;2022-12-16T15:12:42;100303.11;;;-3.12;100.00
56174;BME280;42058;52.308;20.924;2022-12-16T15:15:49;100302.64;;;-3.13;100.00